Time;durP1;ratioP1;P1;durP2;ratioP2;P2;SDS_P1;SDS_P2;PMS_P1;PMS_P2;Temp;Humidity;BMP_temperature;BMP_pressure;BME280_temperature;BME280_humidity;BME280_pressure;Samples;Min_cycle;Max_cycle;Signal;HPM_P1;HPM_P2
2022/03/25 00:00:30;;;;;;;54.17;28.95;;;;;;;;;;5013796;28;20036;-77
2022/03/25 00:02:55;;;;;;;57.40;31.48;;;;;;;;;;5000773;28;20601;-78
2022/03/25 00:05:20;;;;;;;57.50;30.27;;;;;;;;;;5012379;28;20021;-79
2022/03/25 00:07:46;;;;;;;57.47;30.00;;;;;;;;;;5013463;28;20515;-77
2022/03/25 00:10:11;;;;;;;60.47;32.03;;;;;;;;;;5020690;28;20486;-77
2022/03/25 00:12:36;;;;;;;51.30;28.52;;;;;;;;;;5013166;28;20017;-78
2022/03/25 00:15:02;;;;;;;54.50;28.90;;;;;;;;;;5011114;28;20072;-77
2022/03/25 00:17:27;;;;;;;59.00;28.85;;;;;;;;;;5012048;28;20205;-79
2022/03/25 00:19:53;;;;;;;51.47;27.17;;;;;;;;;;5013415;28;20112;-78
2022/03/25 00:22:18;;;;;;;53.30;28.13;;;;;;;;;;5013106;28;20488;-78
2022/03/25 00:24:44;;;;;;;56.28;28.02;;;;;;;;;;5013168;28;20030;-79
2022/03/25 00:27:09;;;;;;;54.70;27.20;;;;;;;;;;5011966;28;20523;-78
2022/03/25 00:29:34;;;;;;;60.85;29.77;;;;;;;;;;5012991;28;20056;-78
2022/03/25 00:31:59;;;;;;;53.90;28.55;;;;;;;;;;5012905;28;20041;-77
2022/03/25 00:34:25;;;;;;;52.35;28.92;;;;;;;;;;5013044;28;20536;-79
2022/03/25 00:36:50;;;;;;;57.83;29.10;;;;;;;;;;5013117;28;20105;-79
2022/03/25 00:39:15;;;;;;;54.58;29.17;;;;;;;;;;5012974;28;20014;-77
2022/03/25 00:41:40;;;;;;;54.60;29.08;;;;;;;;;;5012904;28;20017;-78
2022/03/25 00:44:07;;;;;;;48.83;26.65;;;;;;;;;;5011759;28;20497;-77
2022/03/25 00:46:32;;;;;;;47.10;26.98;;;;;;;;;;5012585;28;20030;-77
2022/03/25 00:48:57;;;;;;;56.67;28.48;;;;;;;;;;5012693;28;20505;-77
2022/03/25 00:51:22;;;;;;;56.08;30.17;;;;;;;;;;5012571;28;20489;-77
2022/03/25 00:53:48;;;;;;;56.67;29.83;;;;;;;;;;5012751;28;20022;-77
2022/03/25 00:56:13;;;;;;;55.38;28.02;;;;;;;;;;5012805;28;20384;-78
2022/03/25 00:58:38;;;;;;;49.85;27.52;;;;;;;;;;5011459;28;20524;-78
2022/03/25 01:01:03;;;;;;;56.00;27.23;;;;;;;;;;5012535;28;20029;-78
2022/03/25 01:03:31;;;;;;;51.72;27.60;;;;;;;;;;5012306;28;20020;-78
2022/03/25 01:05:56;;;;;;;53.13;26.98;;;;;;;;;;5012448;28;20022;-77
2022/03/25 01:08:21;;;;;;;57.58;27.88;;;;;;;;;;5012223;28;20018;-77
2022/03/25 01:10:47;;;;;;;51.00;26.17;;;;;;;;;;5012569;28;20036;-78
2022/03/25 01:13:12;;;;;;;49.08;27.13;;;;;;;;;;5012298;28;20517;-78
2022/03/25 01:15:37;;;;;;;51.20;27.15;;;;;;;;;;5011367;28;20030;-78
2022/03/25 01:18:03;;;;;;;50.70;28.10;;;;;;;;;;5012148;28;20406;-78
2022/03/25 01:20:29;;;;;;;48.85;27.95;;;;;;;;;;5012431;28;20021;-79
2022/03/25 01:22:54;;;;;;;51.92;27.52;;;;;;;;;;5012161;28;20033;-80
2022/03/25 01:25:19;;;;;;;50.65;27.52;;;;;;;;;;5011874;28;20022;-78
2022/03/25 01:27:45;;;;;;;50.95;27.45;;;;;;;;;;5012319;28;20425;-78
2022/03/25 01:30:10;;;;;;;47.70;26.20;;;;;;;;;;5012126;28;20018;-79
2022/03/25 01:32:36;;;;;;;51.47;27.20;;;;;;;;;;5008981;28;20057;-78
2022/03/25 01:35:01;;;;;;;50.10;27.45;;;;;;;;;;5007759;28;20022;-78
2022/03/25 01:37:29;;;;;;;49.42;26.98;;;;;;;;;;5012021;28;20097;-79
2022/03/25 01:39:57;;;;;;;49.23;27.03;;;;;;;;;;5008509;28;20073;-79
2022/03/25 01:42:29;;;;;;;54.17;28.15;;;;;;;;;;5004371;28;20021;-80
2022/03/25 01:44:54;;;;;;;47.65;25.38;;;;;;;;;;5011870;28;20022;-79
2022/03/25 01:47:29;;;;;;;45.72;27.48;;;;;;;;;;5010812;28;20029;-79
2022/03/25 01:49:55;;;;;;;48.90;26.77;;;;;;;;;;5026857;28;20556;-77
2022/03/25 01:52:20;;;;;;;55.45;28.83;;;;;;;;;;5011821;28;20045;-79
2022/03/25 01:54:46;;;;;;;50.45;28.02;;;;;;;;;;5011666;28;20022;-78
2022/03/25 01:57:12;;;;;;;50.65;27.52;;;;;;;;;;5010593;28;20075;-77
2022/03/25 01:59:37;;;;;;;50.95;27.30;;;;;;;;;;5011764;28;20018;-80
2022/03/25 02:02:03;;;;;;;47.78;27.52;;;;;;;;;;5010490;28;20022;-78
2022/03/25 02:04:29;;;;;;;47.63;25.88;;;;;;;;;;5010715;28;20025;-77
2022/03/25 02:06:54;;;;;;;50.13;27.65;;;;;;;;;;5026695;28;20440;-78
2022/03/25 02:09:19;;;;;;;45.30;25.70;;;;;;;;;;5011698;28;20018;-78
2022/03/25 02:11:44;;;;;;;52.67;26.95;;;;;;;;;;5011538;28;20450;-77
2022/03/25 02:14:10;;;;;;;51.13;28.20;;;;;;;;;;5025846;28;20014;-76
2022/03/25 02:16:40;;;;;;;53.83;27.65;;;;;;;;;;5011587;28;20156;-76
2022/03/25 02:19:05;;;;;;;49.38;26.95;;;;;;;;;;5018111;28;20063;-78
2022/03/25 02:21:32;;;;;;;49.95;26.83;;;;;;;;;;5011636;28;20109;-77
2022/03/25 02:23:57;;;;;;;51.13;25.30;;;;;;;;;;5009524;28;20500;-78
2022/03/25 02:26:23;;;;;;;49.90;26.52;;;;;;;;;;5011382;28;20014;-79
2022/03/25 02:28:48;;;;;;;44.40;25.92;;;;;;;;;;5010417;28;20029;-77
2022/03/25 02:31:15;;;;;;;49.15;27.17;;;;;;;;;;5011590;28;20474;-79
2022/03/25 02:33:43;;;;;;;48.88;27.98;;;;;;;;;;5013264;28;20491;-78
2022/03/25 02:36:08;;;;;;;48.30;25.90;;;;;;;;;;5011471;28;20469;-78
2022/03/25 02:38:34;;;;;;;51.85;26.98;;;;;;;;;;5011938;28;20072;-79
2022/03/25 02:40:59;;;;;;;54.92;28.55;;;;;;;;;;5015206;28;20101;-81
2022/03/25 02:43:24;;;;;;;50.05;27.42;;;;;;;;;;5015136;28;20022;-79
2022/03/25 02:45:50;;;;;;;47.63;27.17;;;;;;;;;;5014919;28;20026;-79
2022/03/25 02:48:15;;;;;;;48.70;26.45;;;;;;;;;;5013790;28;20105;-80
2022/03/25 02:50:41;;;;;;;53.20;28.08;;;;;;;;;;5015092;28;20481;-79
2022/03/25 02:53:06;;;;;;;47.95;26.10;;;;;;;;;;5014781;28;20018;-80
2022/03/25 02:55:31;;;;;;;46.75;25.42;;;;;;;;;;5013810;28;20448;-79
2022/03/25 02:57:57;;;;;;;44.92;26.55;;;;;;;;;;5014820;28;20022;-79
2022/03/25 03:00:25;;;;;;;48.38;25.23;;;;;;;;;;5027251;28;20501;-80
2022/03/25 03:02:51;;;;;;;45.83;25.67;;;;;;;;;;5014649;28;20068;-81
2022/03/25 03:05:17;;;;;;;54.90;26.45;;;;;;;;;;5014750;28;20077;-78
2022/03/25 03:07:43;;;;;;;55.97;27.33;;;;;;;;;;5014603;28;20018;-78
2022/03/25 03:10:08;;;;;;;57.17;26.55;;;;;;;;;;5014674;28;20053;-79
2022/03/25 03:12:34;;;;;;;49.35;27.45;;;;;;;;;;5027559;28;20021;-79
2022/03/25 03:15:03;;;;;;;48.03;26.23;;;;;;;;;;5014589;28;20125;-79
2022/03/25 03:17:28;;;;;;;46.30;26.00;;;;;;;;;;5014420;28;20026;-79
2022/03/25 03:19:54;;;;;;;50.30;26.20;;;;;;;;;;5014472;28;20018;-79
2022/03/25 03:22:19;;;;;;;48.55;25.52;;;;;;;;;;5014354;28;20026;-79
2022/03/25 03:24:45;;;;;;;53.10;26.60;;;;;;;;;;5013082;28;20022;-78
2022/03/25 03:27:11;;;;;;;42.72;25.48;;;;;;;;;;5014280;28;20022;-80
2022/03/25 03:29:36;;;;;;;46.25;25.60;;;;;;;;;;5017008;28;20056;-80
2022/03/25 03:32:02;;;;;;;45.95;26.45;;;;;;;;;;5019951;28;20022;-77
2022/03/25 03:34:27;;;;;;;53.33;27.15;;;;;;;;;;5017701;28;20508;-80
2022/03/25 03:36:52;;;;;;;52.10;26.05;;;;;;;;;;5020403;28;20029;-78
2022/03/25 03:39:18;;;;;;;54.60;26.90;;;;;;;;;;5018947;28;20045;-79
2022/03/25 03:41:43;;;;;;;49.00;27.67;;;;;;;;;;5016825;28;20025;-79
2022/03/25 03:44:08;;;;;;;49.10;27.20;;;;;;;;;;5018493;28;20018;-77
2022/03/25 03:46:33;;;;;;;50.13;26.48;;;;;;;;;;5016947;28;20030;-78
2022/03/25 03:48:59;;;;;;;52.13;26.75;;;;;;;;;;5011965;28;20476;-78
2022/03/25 03:51:24;;;;;;;59.15;28.05;;;;;;;;;;5013983;28;20049;-78
2022/03/25 03:53:49;;;;;;;55.30;28.65;;;;;;;;;;5013856;28;20092;-78
2022/03/25 03:56:14;;;;;;;53.15;27.83;;;;;;;;;;5014080;28;20465;-78
2022/03/25 03:58:40;;;;;;;50.50;27.38;;;;;;;;;;5013746;28;20022;-77
2022/03/25 04:01:05;;;;;;;48.28;25.65;;;;;;;;;;5013666;28;20025;-78
2022/03/25 04:03:30;;;;;;;49.03;24.92;;;;;;;;;;5013495;28;20032;-80
2022/03/25 04:06:00;;;;;;;55.67;25.67;;;;;;;;;;5012468;28;20390;-79
2022/03/25 04:08:25;;;;;;;50.08;26.75;;;;;;;;;;5013192;28;20020;-79
2022/03/25 04:10:50;;;;;;;49.45;26.90;;;;;;;;;;5013634;28;20018;-79
2022/03/25 04:13:16;;;;;;;56.08;28.17;;;;;;;;;;5012535;28;20022;-80
2022/03/25 04:15:41;;;;;;;58.33;27.67;;;;;;;;;;5012108;28;20108;-79
2022/03/25 04:18:07;;;;;;;49.80;25.58;;;;;;;;;;5012136;28;20068;-79
2022/03/25 04:20:32;;;;;;;54.40;26.35;;;;;;;;;;5013538;28;20018;-79
2022/03/25 04:22:57;;;;;;;53.10;25.75;;;;;;;;;;5013355;28;20482;-80
2022/03/25 04:25:23;;;;;;;55.40;26.73;;;;;;;;;;5011714;28;20092;-78
2022/03/25 04:27:52;;;;;;;49.17;27.10;;;;;;;;;;5013112;28;20460;-78
2022/03/25 04:30:18;;;;;;;46.80;24.65;;;;;;;;;;5011839;28;20049;-79
2022/03/25 04:32:43;;;;;;;47.75;23.83;;;;;;;;;;5004959;28;20020;-81
2022/03/25 04:35:09;;;;;;;48.45;23.80;;;;;;;;;;5012482;28;20416;-79
2022/03/25 04:37:34;;;;;;;50.03;22.92;;;;;;;;;;5012873;28;20029;-80
2022/03/25 04:40:01;;;;;;;52.47;22.83;;;;;;;;;;5028758;28;20022;-79
2022/03/25 04:42:26;;;;;;;45.13;24.15;;;;;;;;;;5012866;28;20500;-80
2022/03/25 04:44:51;;;;;;;46.10;23.65;;;;;;;;;;5013066;28;20026;-79
2022/03/25 04:47:17;;;;;;;42.50;22.30;;;;;;;;;;5011800;28;20093;-79
2022/03/25 04:49:42;;;;;;;45.50;23.95;;;;;;;;;;5012994;28;20022;-78
2022/03/25 04:52:07;;;;;;;51.42;23.88;;;;;;;;;;5012738;28;20539;-77
2022/03/25 04:54:32;;;;;;;43.50;24.55;;;;;;;;;;5012560;28;20014;-77
2022/03/25 04:56:58;;;;;;;48.90;25.33;;;;;;;;;;5012665;28;20018;-79
2022/03/25 04:59:23;;;;;;;51.80;24.75;;;;;;;;;;5012683;28;20504;-77
2022/03/25 05:01:48;;;;;;;46.80;23.88;;;;;;;;;;5012158;28;20466;-78
2022/03/25 05:04:20;;;;;;;45.60;24.77;;;;;;;;;;5012591;28;20045;-77
2022/03/25 05:06:46;;;;;;;46.50;23.02;;;;;;;;;;5012755;28;20022;-78
2022/03/25 05:09:11;;;;;;;51.97;23.90;;;;;;;;;;5012511;28;20025;-80
2022/03/25 05:11:37;;;;;;;46.92;24.20;;;;;;;;;;5012413;28;20125;-78
2022/03/25 05:14:02;;;;;;;52.42;25.23;;;;;;;;;;5012152;28;20048;-80
2022/03/25 05:16:27;;;;;;;50.20;23.73;;;;;;;;;;5012413;28;20018;-79
2022/03/25 05:18:53;;;;;;;48.67;25.45;;;;;;;;;;5012289;28;20389;-79
2022/03/25 05:21:18;;;;;;;50.47;26.83;;;;;;;;;;5011120;28;20021;-79
2022/03/25 05:23:43;;;;;;;55.65;26.88;;;;;;;;;;5008928;28;20029;-78
2022/03/25 05:26:09;;;;;;;49.78;27.17;;;;;;;;;;5016483;28;20481;-80
2022/03/25 05:28:34;;;;;;;46.60;25.77;;;;;;;;;;4998059;28;20022;-80
2022/03/25 05:30:59;;;;;;;54.40;26.70;;;;;;;;;;5010909;28;20045;-79
2022/03/25 05:33:24;;;;;;;54.92;27.65;;;;;;;;;;5012051;28;20178;-81
2022/03/25 05:35:50;;;;;;;54.72;26.90;;;;;;;;;;5012649;28;20030;-80
2022/03/25 05:38:15;;;;;;;53.00;28.63;;;;;;;;;;5011072;28;20149;-80
2022/03/25 05:40:40;;;;;;;56.78;28.90;;;;;;;;;;5012416;28;20591;-80
2022/03/25 05:43:07;;;;;;;56.85;28.70;;;;;;;;;;5018768;28;20041;-79
2022/03/25 05:45:32;;;;;;;55.85;28.98;;;;;;;;;;5012087;28;20052;-78
2022/03/25 05:47:58;;;;;;;62.55;30.33;;;;;;;;;;5010779;28;20477;-79
2022/03/25 05:50:23;;;;;;;57.65;29.63;;;;;;;;;;5024825;28;20145;-81
2022/03/25 05:52:48;;;;;;;53.60;28.17;;;;;;;;;;5012236;28;20516;-81
2022/03/25 05:55:16;;;;;;;56.20;28.63;;;;;;;;;;5010165;28;20026;-80
2022/03/25 05:57:41;;;;;;;56.83;29.73;;;;;;;;;;5012306;28;20021;-81
2022/03/25 06:00:08;;;;;;;55.03;29.05;;;;;;;;;;5026983;28;20549;-78
2022/03/25 06:02:34;;;;;;;53.08;28.90;;;;;;;;;;5012131;28;20466;-80
2022/03/25 06:04:59;;;;;;;56.90;28.58;;;;;;;;;;5019485;28;20029;-80
2022/03/25 06:07:24;;;;;;;58.40;29.85;;;;;;;;;;5010856;28;20105;-80
2022/03/25 06:09:50;;;;;;;57.65;29.52;;;;;;;;;;5012524;28;20037;-79
2022/03/25 06:12:15;;;;;;;53.67;27.67;;;;;;;;;;5011551;28;20022;-79
2022/03/25 06:14:40;;;;;;;48.33;25.77;;;;;;;;;;5015909;28;20489;-80
2022/03/25 06:17:05;;;;;;;54.58;28.52;;;;;;;;;;5023165;28;20477;-79
2022/03/25 06:19:31;;;;;;;57.67;24.70;;;;;;;;;;5015884;28;20094;-79
2022/03/25 06:21:56;;;;;;;54.22;26.80;;;;;;;;;;5015089;28;20045;-79
2022/03/25 06:24:21;;;;;;;57.83;27.02;;;;;;;;;;5015474;28;20107;-80
2022/03/25 06:26:47;;;;;;;52.85;27.25;;;;;;;;;;5014929;28;20065;-79
2022/03/25 06:29:12;;;;;;;53.22;27.08;;;;;;;;;;5014311;28;20018;-80
2022/03/25 06:31:37;;;;;;;48.53;22.95;;;;;;;;;;5014947;28;20018;-79
2022/03/25 06:34:04;;;;;;;49.92;25.40;;;;;;;;;;5014563;28;20076;-80
2022/03/25 06:36:29;;;;;;;45.75;21.83;;;;;;;;;;5015298;28;20049;-80
2022/03/25 06:38:54;;;;;;;50.80;23.75;;;;;;;;;;5015038;28;20058;-78
2022/03/25 06:41:19;;;;;;;43.10;22.23;;;;;;;;;;5020235;28;20548;-80
2022/03/25 06:43:45;;;;;;;40.03;19.40;;;;;;;;;;5015514;28;20092;-80
2022/03/25 06:46:10;;;;;;;39.60;19.83;;;;;;;;;;5013750;28;20018;-77
2022/03/25 06:48:36;;;;;;;45.60;22.60;;;;;;;;;;5013929;28;20421;-82
2022/03/25 06:51:01;;;;;;;51.90;22.02;;;;;;;;;;5014891;28;20470;-83
2022/03/25 06:53:27;;;;;;;43.95;22.52;;;;;;;;;;5015389;28;20053;-77
2022/03/25 06:55:52;;;;;;;43.13;22.67;;;;;;;;;;5014491;28;20029;-82
2022/03/25 06:58:18;;;;;;;46.22;22.05;;;;;;;;;;5014405;28;20083;-78
2022/03/25 07:00:44;;;;;;;39.63;21.13;;;;;;;;;;5014668;28;20021;-82
2022/03/25 07:03:09;;;;;;;42.08;19.88;;;;;;;;;;5013697;28;20029;-85
2022/03/25 07:05:36;;;;;;;47.17;22.10;;;;;;;;;;5015329;28;20026;-86
2022/03/25 07:08:02;;;;;;;47.08;25.65;;;;;;;;;;5013499;28;20021;-85
2022/03/25 07:10:27;;;;;;;53.90;27.25;;;;;;;;;;5014486;28;20393;-84
2022/03/25 07:12:53;;;;;;;56.83;25.77;;;;;;;;;;5023214;28;20029;-87
2022/03/25 07:15:20;;;;;;;51.17;25.55;;;;;;;;;;5013779;28;20032;-87
2022/03/25 07:17:45;;;;;;;61.95;27.08;;;;;;;;;;5014539;28;20470;-88
2022/03/25 07:20:13;;;;;;;62.35;27.50;;;;;;;;;;5013525;28;20032;-89
2022/03/25 07:22:40;;;;;;;56.75;27.33;;;;;;;;;;5021871;28;20041;-89
2022/03/25 07:25:05;;;;;;;52.97;26.52;;;;;;;;;;5013005;28;20026;-89
2022/03/25 07:27:30;;;;;;;53.03;26.60;;;;;;;;;;5002170;28;20027;-88
2022/03/25 07:29:55;;;;;;;49.65;26.10;;;;;;;;;;4996368;28;20025;-86
2022/03/25 07:32:21;;;;;;;54.58;25.40;;;;;;;;;;5013609;28;20009;-85
2022/03/25 07:34:46;;;;;;;45.92;26.10;;;;;;;;;;5013250;28;20053;-88
2022/03/25 07:37:14;;;;;;;54.55;28.08;;;;;;;;;;5013855;28;20030;-84
2022/03/25 07:39:44;;;;;;;55.70;27.03;;;;;;;;;;5014369;28;20069;-84
2022/03/25 07:42:09;;;;;;;62.47;27.17;;;;;;;;;;5029124;28;20025;-86
2022/03/25 07:44:35;;;;;;;49.55;27.50;;;;;;;;;;5014596;28;20465;-86
2022/03/25 07:47:00;;;;;;;55.58;30.48;;;;;;;;;;5022988;28;20396;-87
2022/03/25 07:49:26;;;;;;;54.92;27.02;;;;;;;;;;5012990;28;20028;-86
2022/03/25 07:51:51;;;;;;;57.95;29.60;;;;;;;;;;5011922;28;20018;-87
2022/03/25 07:54:16;;;;;;;51.47;26.42;;;;;;;;;;5023470;28;20025;-88
2022/03/25 07:56:42;;;;;;;47.95;27.83;;;;;;;;;;5014282;28;20080;-87
2022/03/25 07:59:08;;;;;;;56.85;28.65;;;;;;;;;;5012697;28;20018;-87
2022/03/25 08:01:33;;;;;;;59.85;29.52;;;;;;;;;;5012721;28;20076;-88
2022/03/25 08:03:58;;;;;;;55.80;29.70;;;;;;;;;;5014274;28;20029;-85
2022/03/25 08:06:24;;;;;;;50.47;28.05;;;;;;;;;;5012466;28;20026;-84
2022/03/25 08:08:49;;;;;;;57.42;28.48;;;;;;;;;;5012126;28;20040;-84
2022/03/25 08:11:17;;;;;;;66.95;29.15;;;;;;;;;;5013772;28;20109;-86
2022/03/25 08:13:42;;;;;;;51.38;28.10;;;;;;;;;;5013322;28;20076;-86
2022/03/25 08:16:08;;;;;;;56.40;29.80;;;;;;;;;;5013660;28;20030;-86
2022/03/25 08:18:33;;;;;;;55.85;28.60;;;;;;;;;;5013920;28;20024;-88
2022/03/25 08:21:01;;;;;;;53.60;27.60;;;;;;;;;;5012609;28;20057;-86
2022/03/25 08:28:56;;;;;;;46.60;26.80;;;;;;;;;;5007812;28;20080;-89
2022/03/25 08:31:22;;;;;;;47.72;25.15;;;;;;;;;;5037223;28;20022;-88
2022/03/25 08:33:47;;;;;;;54.85;25.52;;;;;;;;;;5012658;28;20025;-88
2022/03/25 08:36:12;;;;;;;46.15;23.95;;;;;;;;;;5011793;28;20030;-87
2022/03/25 08:38:38;;;;;;;49.45;23.52;;;;;;;;;;5011591;28;20028;-87
2022/03/25 08:41:04;;;;;;;50.83;25.42;;;;;;;;;;5006629;28;20022;-87
2022/03/25 08:43:29;;;;;;;49.65;23.08;;;;;;;;;;5012170;28;20382;-86
2022/03/25 08:45:55;;;;;;;41.42;21.45;;;;;;;;;;5011421;28;20037;-88
2022/03/25 08:48:20;;;;;;;44.83;22.17;;;;;;;;;;5011377;28;20018;-86
2022/03/25 08:50:45;;;;;;;47.22;22.15;;;;;;;;;;5011379;28;20552;-87
2022/03/25 08:53:12;;;;;;;46.10;23.20;;;;;;;;;;5012022;28;20506;-86
2022/03/25 08:55:37;;;;;;;47.00;24.10;;;;;;;;;;5012123;28;20030;-87
2022/03/25 08:58:03;;;;;;;44.55;23.77;;;;;;;;;;5010771;28;20038;-88
2022/03/25 09:00:28;;;;;;;41.67;21.85;;;;;;;;;;5010937;28;20113;-85
2022/03/25 09:02:53;;;;;;;47.53;22.27;;;;;;;;;;5011886;28;20038;-87
2022/03/25 09:05:18;;;;;;;47.67;24.23;;;;;;;;;;5011774;28;20553;-87
2022/03/25 09:07:44;;;;;;;44.33;22.50;;;;;;;;;;5010636;28;20030;-86
2022/03/25 09:10:10;;;;;;;45.47;22.67;;;;;;;;;;5012035;28;20026;-88
2022/03/25 09:12:36;;;;;;;40.53;21.52;;;;;;;;;;5010900;28;20026;-86
2022/03/25 09:15:02;;;;;;;39.95;21.27;;;;;;;;;;5012272;28;20030;-87
2022/03/25 09:17:28;;;;;;;41.45;20.30;;;;;;;;;;5010820;28;20077;-86
2022/03/25 09:19:53;;;;;;;44.65;20.95;;;;;;;;;;5011855;28;20493;-85
2022/03/25 09:22:19;;;;;;;59.60;27.75;;;;;;;;;;5012020;28;20076;-83
2022/03/25 09:24:50;;;;;;;47.33;23.00;;;;;;;;;;5010525;28;20033;-86
2022/03/25 09:27:15;;;;;;;47.95;23.15;;;;;;;;;;5011847;28;20030;-87
2022/03/25 09:29:41;;;;;;;53.92;25.90;;;;;;;;;;5010274;28;20449;-87
2022/03/25 09:32:06;;;;;;;43.65;21.45;;;;;;;;;;5010334;28;20026;-87
2022/03/25 09:37:15;;;;;;;49.22;23.52;;;;;;;;;;5011445;28;20052;-87
2022/03/25 09:39:43;;;;;;;48.67;22.58;;;;;;;;;;5011636;28;20385;-85
2022/03/25 09:42:09;;;;;;;46.05;21.80;;;;;;;;;;5011803;28;20038;-85
2022/03/25 09:44:39;;;;;;;46.53;21.42;;;;;;;;;;5010719;28;20430;-86
2022/03/25 09:47:05;;;;;;;41.63;21.35;;;;;;;;;;5012308;28;20033;-85
2022/03/25 09:49:30;;;;;;;51.55;22.48;;;;;;;;;;5011369;28;20025;-84
2022/03/25 09:51:55;;;;;;;42.40;19.83;;;;;;;;;;5011916;28;20017;-85
2022/03/25 09:54:20;;;;;;;42.38;19.15;;;;;;;;;;5010916;28;20014;-85
2022/03/25 09:56:45;;;;;;;34.67;18.10;;;;;;;;;;5010519;28;20428;-85
2022/03/25 09:59:17;;;;;;;35.92;17.48;;;;;;;;;;5012232;28;20052;-86
2022/03/25 10:01:45;;;;;;;41.58;20.30;;;;;;;;;;5010468;28;20026;-85
2022/03/25 10:04:34;;;;;;;35.60;17.20;;;;;;;;;;5010362;28;20022;-84
2022/03/25 10:06:59;;;;;;;36.25;15.93;;;;;;;;;;5009295;28;20057;-84
2022/03/25 10:09:25;;;;;;;32.40;15.45;;;;;;;;;;5013448;28;20026;-85
2022/03/25 10:11:50;;;;;;;31.25;14.75;;;;;;;;;;5011632;28;20054;-82
2022/03/25 10:14:19;;;;;;;31.50;16.73;;;;;;;;;;5012023;28;20020;-85
2022/03/25 10:16:46;;;;;;;32.00;15.57;;;;;;;;;;5020637;28;20072;-85
2022/03/25 10:19:21;;;;;;;40.10;15.57;;;;;;;;;;5011581;28;20026;-86
2022/03/25 10:21:52;;;;;;;28.27;14.85;;;;;;;;;;5009150;28;20033;-86
2022/03/25 10:24:18;;;;;;;27.65;13.40;;;;;;;;;;5018344;28;20021;-84
2022/03/25 10:26:43;;;;;;;31.42;13.60;;;;;;;;;;5009940;28;20558;-84
2022/03/25 10:29:29;;;;;;;33.63;15.32;;;;;;;;;;5011515;28;20024;-85
2022/03/25 10:32:14;;;;;;;26.58;14.13;;;;;;;;;;5010860;28;20149;-85
2022/03/25 10:34:43;;;;;;;24.63;11.35;;;;;;;;;;5009877;28;20014;-84
2022/03/25 10:37:11;;;;;;;24.02;12.02;;;;;;;;;;5010387;28;20026;-85
2022/03/25 10:39:37;;;;;;;32.30;12.00;;;;;;;;;;5010038;28;20010;-85
2022/03/25 10:42:03;;;;;;;20.95;10.73;;;;;;;;;;5011257;28;20021;-84
2022/03/25 10:44:33;;;;;;;29.48;12.57;;;;;;;;;;5010655;28;20021;-84
2022/03/25 10:46:58;;;;;;;27.48;11.90;;;;;;;;;;5011506;28;20093;-84
2022/03/25 10:49:23;;;;;;;25.00;11.85;;;;;;;;;;5011369;28;20017;-84
2022/03/25 10:52:04;;;;;;;22.88;10.80;;;;;;;;;;5011374;28;20103;-85
2022/03/25 10:54:30;;;;;;;19.17;10.60;;;;;;;;;;5007017;28;20014;-85
2022/03/25 10:57:08;;;;;;;23.90;12.10;;;;;;;;;;5010742;28;20033;-85
2022/03/25 10:59:34;;;;;;;26.17;12.38;;;;;;;;;;5009708;28;20121;-85
2022/03/25 11:02:12;;;;;;;28.05;12.45;;;;;;;;;;5012068;28;20033;-84
2022/03/25 11:04:37;;;;;;;26.35;11.48;;;;;;;;;;5013912;28;20397;-85
2022/03/25 11:07:02;;;;;;;23.10;10.18;;;;;;;;;;5019358;28;20037;-85
2022/03/25 11:09:28;;;;;;;30.50;12.27;;;;;;;;;;5014482;28;20055;-83
2022/03/25 11:11:55;;;;;;;30.33;12.05;;;;;;;;;;5013164;28;20018;-84
2022/03/25 11:14:21;;;;;;;61.38;28.30;;;;;;;;;;5012370;28;20025;-84
2022/03/25 11:16:53;;;;;;;37.00;18.00;;;;;;;;;;5002882;28;20501;-83
2022/03/25 11:19:19;;;;;;;67.03;30.30;;;;;;;;;;5014921;28;20018;-85
2022/03/25 11:21:45;;;;;;;54.83;25.90;;;;;;;;;;5014345;28;20040;-83
2022/03/25 11:24:27;;;;;;;92.60;48.38;;;;;;;;;;5014638;28;20033;-84
2022/03/25 11:26:54;;;;;;;54.50;28.10;;;;;;;;;;5022470;28;20025;-83
2022/03/25 11:29:23;;;;;;;54.97;27.55;;;;;;;;;;5011409;28;20076;-83
2022/03/25 11:32:05;;;;;;;37.67;18.00;;;;;;;;;;5011691;28;20110;-84
2022/03/25 11:34:30;;;;;;;34.20;15.77;;;;;;;;;;4996968;28;20025;-84
2022/03/25 11:37:15;;;;;;;20.90;13.02;;;;;;;;;;5022384;28;20030;-84
2022/03/25 11:39:40;;;;;;;31.52;14.85;;;;;;;;;;5014425;28;20049;-84
2022/03/25 11:42:07;;;;;;;30.23;13.60;;;;;;;;;;5013431;28;20493;-83
2022/03/25 11:44:33;;;;;;;26.10;15.13;;;;;;;;;;5010644;28;20026;-84
2022/03/25 11:46:58;;;;;;;28.85;14.32;;;;;;;;;;5006618;28;20021;-84
2022/03/25 11:49:24;;;;;;;27.58;15.65;;;;;;;;;;5017896;28;20018;-82
2022/03/25 11:51:49;;;;;;;28.48;14.00;;;;;;;;;;5015840;28;20014;-83
2022/03/25 11:54:33;;;;;;;28.88;13.15;;;;;;;;;;5014524;28;20470;-82
2022/03/25 11:57:00;;;;;;;20.00;11.90;;;;;;;;;;5021061;28;20026;-84
2022/03/25 11:59:25;;;;;;;23.77;12.73;;;;;;;;;;5014515;28;20029;-83
2022/03/25 12:02:10;;;;;;;21.00;11.47;;;;;;;;;;5015584;28;20492;-83
2022/03/25 12:04:37;;;;;;;21.23;12.35;;;;;;;;;;5016656;28;20022;-83
2022/03/25 12:07:08;;;;;;;21.85;12.27;;;;;;;;;;5015874;28;20029;-84
2022/03/25 12:09:34;;;;;;;20.05;12.13;;;;;;;;;;5029629;28;20026;-81
2022/03/25 12:12:00;;;;;;;21.20;12.05;;;;;;;;;;5015158;28;20018;-83
2022/03/25 12:14:31;;;;;;;23.13;12.13;;;;;;;;;;5013136;28;20121;-82
2022/03/25 12:16:57;;;;;;;25.10;12.27;;;;;;;;;;5020364;28;20014;-80
2022/03/25 12:19:42;;;;;;;18.25;10.27;;;;;;;;;;5015022;28;20049;-81
2022/03/25 12:22:23;;;;;;;21.23;11.68;;;;;;;;;;4998899;28;20029;-81
2022/03/25 12:24:52;;;;;;;21.70;13.07;;;;;;;;;;5013418;28;20113;-83
2022/03/25 12:27:21;;;;;;;21.60;12.82;;;;;;;;;;5015151;28;20017;-82
2022/03/25 12:29:48;;;;;;;23.40;12.70;;;;;;;;;;5015200;28;20026;-81
2022/03/25 12:32:15;;;;;;;25.95;12.80;;;;;;;;;;5013294;28;20028;-82
2022/03/25 12:34:52;;;;;;;20.52;12.00;;;;;;;;;;5014118;28;20057;-83
2022/03/25 12:37:23;;;;;;;26.23;13.90;;;;;;;;;;5011837;28;20131;-81
2022/03/25 12:39:49;;;;;;;23.27;13.38;;;;;;;;;;5012958;28;20018;-82
2022/03/25 12:42:14;;;;;;;21.65;13.68;;;;;;;;;;5011100;28;20032;-81
2022/03/25 12:44:39;;;;;;;19.97;12.70;;;;;;;;;;5018563;28;20049;-80
2022/03/25 12:47:06;;;;;;;26.10;13.90;;;;;;;;;;5016950;28;20339;-80
2022/03/25 12:49:31;;;;;;;20.92;11.13;;;;;;;;;;5018985;28;20025;-82
2022/03/25 12:52:00;;;;;;;24.65;13.40;;;;;;;;;;5019301;28;20081;-81
2022/03/25 12:54:29;;;;;;;21.77;13.48;;;;;;;;;;5022031;28;20054;-80
2022/03/25 12:56:59;;;;;;;28.00;14.75;;;;;;;;;;5015534;28;20033;-81
2022/03/25 12:59:28;;;;;;;27.60;14.82;;;;;;;;;;5019714;28;20022;-79
2022/03/25 13:01:53;;;;;;;29.25;16.30;;;;;;;;;;5016155;28;20116;-82
2022/03/25 13:04:31;;;;;;;22.02;13.93;;;;;;;;;;5014742;28;20116;-82
2022/03/25 13:07:10;;;;;;;23.85;13.25;;;;;;;;;;5015673;28;20022;-80
2022/03/25 13:09:36;;;;;;;24.70;14.20;;;;;;;;;;5015687;28;20148;-79
2022/03/25 13:12:02;;;;;;;21.58;13.07;;;;;;;;;;5017437;28;20053;-79
2022/03/25 13:17:02;;;;;;;28.10;16.90;;;;;;;;;;5032708;28;20061;-81
2022/03/25 13:19:31;;;;;;;26.08;15.45;;;;;;;;;;5026135;28;20283;-83
2022/03/25 13:22:11;;;;;;;23.80;14.65;;;;;;;;;;5033463;28;20026;-80
2022/03/25 13:24:56;;;;;;;26.60;15.55;;;;;;;;;;5033162;28;20052;-83
2022/03/25 13:27:22;;;;;;;26.85;16.10;;;;;;;;;;5035455;28;20267;-81
2022/03/25 13:29:47;;;;;;;24.80;15.13;;;;;;;;;;5037405;28;20425;-83
2022/03/25 13:32:27;;;;;;;26.00;14.25;;;;;;;;;;5035393;28;20025;-81
2022/03/25 13:35:06;;;;;;;23.70;14.40;;;;;;;;;;5038735;28;20028;-81
2022/03/25 13:37:32;;;;;;;25.77;14.45;;;;;;;;;;5037698;28;20032;-83
2022/03/25 13:39:58;;;;;;;22.75;15.40;;;;;;;;;;5038185;28;20094;-82
2022/03/25 13:42:31;;;;;;;24.30;13.60;;;;;;;;;;5037444;28;20037;-84
2022/03/25 13:45:03;;;;;;;24.23;13.98;;;;;;;;;;5037796;28;20028;-82
2022/03/25 13:47:29;;;;;;;27.88;16.40;;;;;;;;;;5038696;28;20056;-81
2022/03/25 13:50:14;;;;;;;25.90;15.50;;;;;;;;;;5038366;28;20022;-84
2022/03/25 13:52:39;;;;;;;23.67;14.95;;;;;;;;;;5036565;28;20492;-83
2022/03/25 13:55:16;;;;;;;26.27;14.57;;;;;;;;;;5031808;28;20025;-82
2022/03/25 13:57:52;;;;;;;26.50;14.63;;;;;;;;;;5046903;28;20737;-82
2022/03/25 14:00:17;;;;;;;25.25;14.45;;;;;;;;;;5027281;28;20442;-83
2022/03/25 14:02:43;;;;;;;27.02;14.75;;;;;;;;;;5033630;28;20063;-82
2022/03/25 14:05:23;;;;;;;27.58;15.95;;;;;;;;;;5034154;28;20025;-83
2022/03/25 14:07:49;;;;;;;24.98;15.70;;;;;;;;;;5046871;28;20051;-85
2022/03/25 14:10:15;;;;;;;26.48;15.80;;;;;;;;;;5031009;28;20014;-82
2022/03/25 14:12:40;;;;;;;28.37;16.80;;;;;;;;;;5032384;28;20049;-83
2022/03/25 14:15:06;;;;;;;22.92;14.98;;;;;;;;;;5030019;28;20326;-83
2022/03/25 14:17:33;;;;;;;22.58;14.55;;;;;;;;;;5029015;28;20386;-83
2022/03/25 14:20:17;;;;;;;24.42;13.73;;;;;;;;;;5031798;28;20035;-82
2022/03/25 14:22:43;;;;;;;26.08;13.85;;;;;;;;;;5031665;28;20416;-82
2022/03/25 14:25:11;;;;;;;26.13;15.93;;;;;;;;;;5031343;28;20109;-83